Time;durP1;ratioP1;P1;durP2;ratioP2;P2;SDS_P1;SDS_P2;PMS_P1;PMS_P2;Temp;Humidity;BMP_temperature;BMP_pressure;BME280_temperature;BME280_humidity;BME280_pressure;Samples;Min_cycle;Max_cycle;Signal;HPM_P1;HPM_P2
2024/01/17 00:01:50;;;;;;;291.13;234.00;;;-2.00;99.90;;;;;;5071688;28;20449;-79
2024/01/17 00:04:32;;;;;;;36.57;28.40;;;-1.10;99.90;;;;;;5079573;28;20206;-80
2024/01/17 00:07:10;;;;;;;23.90;18.07;;;-0.80;99.90;;;;;;5084060;28;20456;-80
2024/01/17 00:09:42;;;;;;;17.83;15.93;;;-1.10;99.90;;;;;;5083507;28;20449;-77
2024/01/17 00:12:14;;;;;;;18.53;16.57;;;-1.50;99.90;;;;;;5081783;28;20460;-78
2024/01/17 00:14:49;;;;;;;18.13;16.23;;;-1.70;99.90;;;;;;5083663;28;20515;-77
2024/01/17 00:17:18;;;;;;;18.90;16.90;;;-1.80;99.90;;;;;;5082537;28;20522;-78
2024/01/17 00:19:46;;;;;;;22.37;17.40;;;-1.80;99.90;;;;;;5081827;28;20443;-79
2024/01/17 00:22:16;;;;;;;23.43;17.47;;;-1.90;99.90;;;;;;5080309;28;20486;-81
2024/01/17 00:24:53;;;;;;;22.07;16.70;;;-1.90;99.90;;;;;;5080861;28;20449;-78
2024/01/17 00:27:29;;;;;;;30.30;18.70;;;-1.90;99.90;;;;;;5081879;28;20478;-78
2024/01/17 00:30:09;;;;;;;26.33;18.50;;;-1.90;99.90;;;;;;5084660;28;20424;-78
2024/01/17 00:32:48;;;;;;;20.10;17.83;;;-2.00;99.90;;;;;;5084929;28;20460;-78
2024/01/17 00:35:21;;;;;;;21.37;15.87;;;-2.00;99.90;;;;;;5082835;28;20855;-78
2024/01/17 00:37:54;;;;;;;25.20;17.20;;;-1.90;99.90;;;;;;5082107;28;20429;-78
2024/01/17 00:40:27;;;;;;;21.27;16.87;;;-1.90;99.90;;;;;;5082063;28;20471;-80
2024/01/17 00:43:01;;;;;;;18.87;16.13;;;-2.00;99.90;;;;;;5078954;28;20472;-78
2024/01/17 00:45:38;;;;;;;21.73;17.30;;;-2.00;99.90;;;;;;5077097;28;20449;-76
2024/01/17 00:48:18;;;;;;;22.03;18.37;;;-2.10;99.90;;;;;;5080327;28;20489;-78
2024/01/17 00:50:51;;;;;;;19.70;17.50;;;-2.10;99.90;;;;;;5079428;28;20532;-79
2024/01/17 00:53:22;;;;;;;22.67;17.50;;;-2.00;99.90;;;;;;5077881;28;20468;-79
2024/01/17 00:55:52;;;;;;;24.33;17.97;;;-2.30;99.90;;;;;;5077956;28;20448;-79
2024/01/17 00:58:24;;;;;;;23.47;18.37;;;-1.90;99.90;;;;;;5077131;28;20461;-79
2024/01/17 01:00:59;;;;;;;24.10;18.00;;;-1.90;99.90;;;;;;5078440;28;20449;-79
2024/01/17 01:03:40;;;;;;;124.43;93.77;;;-1.90;99.90;;;;;;5078382;28;20483;-79
2024/01/17 01:06:13;;;;;;;573.87;418.27;;;-1.30;99.90;;;;;;5080172;28;20448;-78
2024/01/17 01:08:44;;;;;;;136.37;91.70;;;-1.20;99.90;;;;;;5080191;28;20445;-80
2024/01/17 01:11:21;;;;;;;22.80;18.43;;;-1.00;99.90;;;;;;5078928;28;20447;-78
2024/01/17 01:13:56;;;;;;;28.77;17.30;;;-1.30;99.90;;;;;;5078165;28;20527;-79
2024/01/17 01:16:31;;;;;;;18.90;16.23;;;-1.50;99.90;;;;;;5078056;28;20440;-78
2024/01/17 01:19:06;;;;;;;18.30;16.30;;;-1.50;99.90;;;;;;5077108;28;20484;-78
2024/01/17 01:21:39;;;;;;;21.90;15.93;;;-1.60;99.90;;;;;;5076411;28;20529;-79
2024/01/17 01:24:07;;;;;;;23.77;16.43;;;-1.70;99.90;;;;;;5076410;28;20428;-79
2024/01/17 01:26:37;;;;;;;19.10;16.37;;;-1.60;99.90;;;;;;5075623;28;20448;-80
2024/01/17 01:29:05;;;;;;;21.97;17.23;;;-1.60;99.90;;;;;;5080236;28;20631;-81
2024/01/17 01:31:42;;;;;;;22.60;17.50;;;-1.90;99.90;;;;;;5079903;28;20447;-78
2024/01/17 01:34:17;;;;;;;24.13;17.33;;;-1.60;99.90;;;;;;5082690;28;20456;-78
2024/01/17 01:36:58;;;;;;;21.30;16.77;;;-1.70;99.90;;;;;;5083009;28;20531;-77
2024/01/17 01:39:25;;;;;;;23.23;16.60;;;-1.70;99.90;;;;;;5066035;28;20461;-78
2024/01/17 01:42:30;;;;;;;26.57;16.90;;;-1.70;99.90;;;;;;5065143;28;20488;-77
2024/01/17 01:45:10;;;;;;;22.87;17.53;;;-1.90;99.90;;;;;;5074606;28;20455;-79
2024/01/17 01:47:42;;;;;;;23.60;16.27;;;-1.60;99.90;;;;;;5085198;28;20455;-77
2024/01/17 01:50:41;;;;;;;21.97;17.10;;;-1.60;99.90;;;;;;5084460;28;21140;-78
2024/01/17 01:53:14;;;;;;;22.83;17.00;;;-1.70;99.90;;;;;;5078816;28;20532;-79
2024/01/17 01:55:49;;;;;;;19.37;16.23;;;-1.70;99.90;;;;;;5079668;28;20801;-80
2024/01/17 01:58:21;;;;;;;20.07;16.80;;;-1.70;99.90;;;;;;5076851;28;20453;-77
2024/01/17 02:01:14;;;;;;;;;;;;;;;;;;;;;
2024/01/17 02:04:15;;;;;;;22.73;16.20;;;-1.80;99.90;;;;;;5077856;28;20512;-80
2024/01/17 02:06:54;;;;;;;23.40;16.97;;;-1.70;99.90;;;;;;5059962;28;20438;-78
2024/01/17 02:09:25;;;;;;;21.03;15.60;;;-1.60;99.90;;;;;;5056796;28;20449;-78
2024/01/17 02:12:07;;;;;;;18.63;16.20;;;-1.60;99.90;;;;;;5058161;28;20532;-77
2024/01/17 02:15:00;;;;;;;22.40;16.07;;;-1.60;99.90;;;;;;5059360;28;20538;-79
2024/01/17 02:17:38;;;;;;;20.80;16.17;;;-1.60;99.90;;;;;;5059681;28;20442;-77
2024/01/17 02:24:20;;;;;;;19.80;15.80;;;-1.50;99.90;;;;;;5057038;28;20542;-79
2024/01/17 02:26:54;;;;;;;20.53;15.77;;;-1.80;99.90;;;;;;5020009;28;20460;-78
2024/01/17 02:29:25;;;;;;;18.43;15.90;;;-1.60;99.90;;;;;;5025065;28;20447;-77
2024/01/17 02:32:09;;;;;;;17.33;14.77;;;-1.50;99.90;;;;;;5050673;28;20488;-78
2024/01/17 02:34:53;;;;;;;18.50;16.50;;;-1.50;99.90;;;;;;5061960;28;20556;-77
2024/01/17 02:37:28;;;;;;;19.60;15.63;;;-1.40;99.90;;;;;;5061942;28;20452;-78
2024/01/17 02:39:57;;;;;;;346.60;251.03;;;-1.40;99.90;;;;;;5063081;28;20485;-76
2024/01/17 02:42:33;;;;;;;128.03;75.20;;;-1.00;99.90;;;;;;5063305;28;20549;-77
2024/01/17 02:45:05;;;;;;;41.00;31.40;;;-1.00;99.90;;;;;;5063878;28;20437;-76
2024/01/17 02:47:38;;;;;;;21.10;17.13;;;-1.10;99.90;;;;;;5064591;28;20481;-78
2024/01/17 02:50:14;;;;;;;23.53;17.50;;;-0.90;99.90;;;;;;5066766;28;20429;-76
2024/01/17 02:53:07;;;;;;;19.70;15.87;;;-1.10;99.90;;;;;;5067541;28;20525;-78
2024/01/17 02:55:42;;;;;;;18.70;16.50;;;-1.10;99.90;;;;;;5067734;28;20480;-76
2024/01/17 02:58:22;;;;;;;20.33;15.73;;;-0.90;99.90;;;;;;5063761;28;20417;-76
2024/01/17 03:00:55;;;;;;;21.33;16.47;;;-1.20;99.90;;;;;;5062927;28;20452;-83
2024/01/17 03:03:35;;;;;;;22.00;18.23;;;-1.20;99.90;;;;;;5065632;28;20480;-77
2024/01/17 03:06:07;;;;;;;19.30;17.03;;;-1.20;99.90;;;;;;5074281;28;20502;-77
2024/01/17 03:08:44;;;;;;;20.60;16.73;;;-1.30;99.90;;;;;;5087126;28;20459;-79
2024/01/17 03:11:19;;;;;;;19.00;15.87;;;-1.30;99.90;;;;;;5082834;28;20447;-76
2024/01/17 03:13:53;;;;;;;20.40;17.53;;;-1.30;99.90;;;;;;5084924;28;20456;-75
2024/01/17 03:16:22;;;;;;;20.17;16.50;;;-1.30;99.90;;;;;;5085431;28;20444;-76
2024/01/17 03:18:53;;;;;;;22.47;18.90;;;-1.40;99.90;;;;;;5085170;28;20467;-77
2024/01/17 03:21:25;;;;;;;22.73;16.80;;;-1.50;99.90;;;;;;5084601;28;20457;-75
2024/01/17 03:23:58;;;;;;;22.00;16.97;;;-1.60;99.90;;;;;;5083713;28;20511;-77
2024/01/17 03:26:32;;;;;;;26.33;17.60;;;-1.70;99.90;;;;;;5082763;28;20475;-75
2024/01/17 03:29:08;;;;;;;23.07;16.77;;;-1.70;99.90;;;;;;5082397;28;20409;-76
2024/01/17 03:31:38;;;;;;;20.87;17.80;;;-1.80;99.90;;;;;;5082136;28;20472;-75
2024/01/17 03:34:11;;;;;;;23.80;18.07;;;-1.60;99.90;;;;;;5081922;28;20448;-76
2024/01/17 03:36:39;;;;;;;22.27;17.60;;;-1.50;99.90;;;;;;5079703;28;20445;-77
2024/01/17 03:39:09;;;;;;;21.97;18.37;;;-1.40;99.90;;;;;;5075285;28;20480;-77
2024/01/17 03:41:40;;;;;;;20.77;17.80;;;-1.40;99.90;;;;;;5075501;28;20445;-77
2024/01/17 03:44:13;;;;;;;19.57;17.47;;;-1.40;99.90;;;;;;5077688;28;20476;-76
2024/01/17 03:46:48;;;;;;;21.00;17.27;;;-1.40;99.90;;;;;;5079369;28;20475;-76
2024/01/17 03:49:23;;;;;;;21.60;18.13;;;-1.40;99.90;;;;;;5078616;28;20441;-75
2024/01/17 03:51:57;;;;;;;25.17;19.87;;;-1.10;99.90;;;;;;5077650;28;20495;-76
2024/01/17 03:54:28;;;;;;;21.97;18.93;;;-1.10;99.90;;;;;;5076966;28;20428;-76
2024/01/17 03:57:02;;;;;;;22.90;18.60;;;-1.30;99.90;;;;;;5076297;28;20475;-75
2024/01/17 03:59:38;;;;;;;22.40;18.10;;;-1.30;99.90;;;;;;5075215;28;20464;-77
2024/01/17 04:02:09;;;;;;;22.43;18.43;;;-1.30;99.90;;;;;;5073405;28;20473;-77
2024/01/17 04:04:41;;;;;;;20.70;18.13;;;-1.20;99.90;;;;;;5072999;28;20469;-76
2024/01/17 04:07:11;;;;;;;27.43;18.43;;;-1.20;99.90;;;;;;5072683;28;20456;-78
2024/01/17 04:09:40;;;;;;;25.83;20.20;;;-1.50;99.90;;;;;;5072213;28;20441;-79
2024/01/17 04:12:08;;;;;;;21.63;18.90;;;-1.20;99.90;;;;;;5072869;28;20473;-76
2024/01/17 04:14:37;;;;;;;22.87;18.40;;;-1.10;99.90;;;;;;5073101;28;20452;-76
2024/01/17 04:17:08;;;;;;;23.80;19.37;;;-1.30;99.90;;;;;;5072779;28;20449;-76
2024/01/17 04:19:36;;;;;;;21.73;18.67;;;-1.30;99.90;;;;;;5073387;28;20459;-78
2024/01/17 04:22:07;;;;;;;22.23;19.47;;;-1.20;99.90;;;;;;5075373;28;20475;-77
2024/01/17 04:24:40;;;;;;;20.60;18.40;;;-1.10;99.90;;;;;;5076225;28;20530;-76
2024/01/17 04:27:10;;;;;;;25.70;19.87;;;-1.10;99.90;;;;;;5077067;28;20421;-78
2024/01/17 04:29:43;;;;;;;24.50;20.10;;;-1.10;99.90;;;;;;5076805;28;20649;-76
2024/01/17 04:32:11;;;;;;;24.33;18.97;;;-0.90;99.90;;;;;;5076979;28;20475;-76
2024/01/17 04:34:43;;;;;;;24.20;19.90;;;-1.10;99.90;;;;;;5076604;28;20475;-75
2024/01/17 04:37:10;;;;;;;27.97;19.73;;;-1.20;99.90;;;;;;5076094;28;20476;-77
2024/01/17 04:39:39;;;;;;;20.80;17.80;;;-1.30;99.90;;;;;;5076953;28;20513;-76
2024/01/17 04:42:09;;;;;;;27.27;20.33;;;-1.30;99.90;;;;;;5076265;28;20468;-75
2024/01/17 04:44:39;;;;;;;25.73;19.40;;;-1.30;99.90;;;;;;5075269;28;20482;-77
2024/01/17 04:47:10;;;;;;;26.77;20.47;;;-1.00;99.90;;;;;;5075573;28;20452;-76
2024/01/17 04:49:38;;;;;;;23.60;18.93;;;-1.20;99.90;;;;;;5075861;28;20449;-77
2024/01/17 04:52:06;;;;;;;26.37;19.50;;;-1.10;99.90;;;;;;5075895;28;20543;-77
2024/01/17 04:54:36;;;;;;;22.77;20.10;;;-1.10;99.90;;;;;;5075761;28;20440;-77
2024/01/17 04:57:04;;;;;;;22.33;18.60;;;-1.00;99.90;;;;;;5075804;28;20891;-77
2024/01/17 04:59:39;;;;;;;28.43;19.60;;;-1.00;99.90;;;;;;5076147;28;20496;-76
2024/01/17 05:02:10;;;;;;;26.03;20.30;;;-0.90;99.90;;;;;;5075745;28;20554;-78
2024/01/17 05:04:39;;;;;;;23.73;19.87;;;-0.70;99.90;;;;;;5076494;28;20543;-75
2024/01/17 05:07:08;;;;;;;30.00;20.30;;;-0.90;99.90;;;;;;5056288;28;20448;-76
2024/01/17 05:09:37;;;;;;;24.87;19.07;;;-0.80;99.90;;;;;;5057060;28;20539;-77
2024/01/17 05:12:09;;;;;;;22.80;19.70;;;-0.80;99.90;;;;;;5056890;28;20476;-77
2024/01/17 05:14:36;;;;;;;22.50;19.63;;;-0.80;99.90;;;;;;5056454;28;20437;-81
2024/01/17 05:17:08;;;;;;;24.87;20.70;;;-1.00;99.90;;;;;;5056521;28;20445;-76
2024/01/17 05:19:37;;;;;;;23.37;20.07;;;-0.80;99.90;;;;;;5056537;28;20528;-76
2024/01/17 05:22:06;;;;;;;28.50;20.70;;;-0.80;99.90;;;;;;5056459;28;20477;-77
2024/01/17 05:24:34;;;;;;;22.03;19.73;;;-0.70;99.90;;;;;;5055411;28;20473;-77
2024/01/17 05:27:07;;;;;;;23.77;21.20;;;-0.70;99.90;;;;;;5057227;28;20511;-77
2024/01/17 05:29:43;;;;;;;22.37;19.97;;;-0.70;99.90;;;;;;5058541;28;20433;-77
2024/01/17 05:32:14;;;;;;;27.57;21.43;;;-0.70;99.90;;;;;;5058539;28;20857;-77
2024/01/17 05:34:45;;;;;;;29.87;21.03;;;-0.70;99.90;;;;;;5059253;28;20448;-76
2024/01/17 05:37:13;;;;;;;27.43;22.20;;;-0.60;99.90;;;;;;5055737;28;20449;-75
2024/01/17 05:39:41;;;;;;;27.57;22.30;;;-0.70;99.90;;;;;;5055906;28;20954;-77
2024/01/17 05:42:08;;;;;;;26.60;21.57;;;-0.70;99.90;;;;;;5056491;28;20470;-77
2024/01/17 05:44:40;;;;;;;28.83;20.67;;;-0.60;99.90;;;;;;5056722;28;20485;-76
2024/01/17 05:47:08;;;;;;;25.73;20.27;;;-0.60;99.90;;;;;;5055041;28;20453;-77
2024/01/17 05:49:42;;;;;;;24.30;21.90;;;-0.60;99.90;;;;;;5054966;28;20450;-78
2024/01/17 05:52:11;;;;;;;25.27;20.23;;;-0.40;99.90;;;;;;5054724;28;20465;-80
2024/01/17 05:54:42;;;;;;;26.00;20.77;;;-0.50;99.90;;;;;;5054702;28;20505;-77
2024/01/17 05:57:12;;;;;;;27.00;20.63;;;-0.70;99.90;;;;;;5054005;28;20927;-77
2024/01/17 05:59:40;;;;;;;28.17;21.07;;;-0.20;99.90;;;;;;5053814;28;20950;-77
2024/01/17 06:02:08;;;;;;;27.03;20.47;;;-0.40;99.90;;;;;;5054009;28;20502;-77
2024/01/17 06:04:37;;;;;;;23.40;20.93;;;-0.30;99.90;;;;;;5054611;28;20481;-77
2024/01/17 06:07:05;;;;;;;27.03;21.00;;;-0.40;99.90;;;;;;5055526;28;20951;-78
2024/01/17 06:09:35;;;;;;;24.90;21.50;;;-0.30;99.90;;;;;;5065430;28;20445;-76
2024/01/17 06:12:02;;;;;;;26.90;21.70;;;-0.20;99.90;;;;;;5067720;28;20461;-77
2024/01/17 06:14:33;;;;;;;28.20;20.43;;;-0.20;99.90;;;;;;5065222;28;20542;-76
2024/01/17 06:17:03;;;;;;;24.13;20.90;;;-0.10;99.90;;;;;;5056940;28;20411;-78
2024/01/17 06:19:31;;;;;;;28.00;21.70;;;0.10;99.90;;;;;;5055763;28;20465;-77
2024/01/17 06:22:01;;;;;;;27.90;21.20;;;0.20;99.90;;;;;;5055943;28;20478;-76
2024/01/17 06:24:29;;;;;;;27.13;22.83;;;-0.10;99.90;;;;;;5056484;28;20507;-77
2024/01/17 06:26:57;;;;;;;26.00;22.40;;;0.10;99.90;;;;;;5056512;28;20453;-80
2024/01/17 06:29:26;;;;;;;24.70;20.50;;;-0.20;99.90;;;;;;5060114;28;20446;-78
2024/01/17 06:31:54;;;;;;;27.07;22.17;;;-0.10;99.90;;;;;;5057826;28;20546;-76
2024/01/17 06:34:28;;;;;;;26.47;20.77;;;0.00;99.90;;;;;;5059149;28;20449;-78
2024/01/17 06:36:57;;;;;;;26.40;21.67;;;0.00;99.90;;;;;;5063279;28;20437;-78
2024/01/17 06:39:27;;;;;;;21.63;19.40;;;0.30;99.90;;;;;;5064154;28;20489;-80
2024/01/17 06:41:55;;;;;;;27.07;22.10;;;0.10;99.90;;;;;;5057181;28;20493;-80
2024/01/17 06:44:23;;;;;;;26.50;21.97;;;0.30;99.90;;;;;;5056249;28;20477;-80
2024/01/17 06:46:51;;;;;;;29.10;23.10;;;0.10;99.90;;;;;;5060150;28;20451;-77
2024/01/17 06:49:21;;;;;;;28.20;22.30;;;0.20;99.90;;;;;;5060841;28;20464;-80
2024/01/17 06:51:49;;;;;;;28.30;20.07;;;0.20;99.90;;;;;;5060113;28;20470;-78
2024/01/17 06:54:21;;;;;;;25.83;20.30;;;0.40;99.90;;;;;;5058774;28;20542;-77
2024/01/17 06:56:56;;;;;;;27.23;21.83;;;0.30;99.90;;;;;;5059346;28;20454;-78
2024/01/17 06:59:23;;;;;;;25.50;20.50;;;0.30;99.90;;;;;;5060361;28;20524;-78
2024/01/17 07:01:51;;;;;;;25.63;22.70;;;0.40;99.90;;;;;;5064399;28;20453;-78
2024/01/17 07:04:21;;;;;;;27.27;19.30;;;0.40;99.90;;;;;;5062288;28;20473;-79
2024/01/17 07:06:54;;;;;;;27.17;20.27;;;0.50;99.90;;;;;;5080468;28;20437;-78
2024/01/17 07:09:27;;;;;;;38.20;22.47;;;0.60;99.90;;;;;;5081229;28;20450;-78
2024/01/17 07:11:58;;;;;;;30.70;22.93;;;0.80;99.90;;;;;;5081525;28;20488;-79
2024/01/17 07:14:25;;;;;;;26.80;22.00;;;0.70;99.90;;;;;;5083323;28;20443;-81
2024/01/17 07:16:53;;;;;;;29.50;21.77;;;0.70;99.90;;;;;;5080360;28;20441;-79
2024/01/17 07:19:21;;;;;;;25.77;21.57;;;0.70;99.90;;;;;;5083377;28;20537;-80
2024/01/17 07:21:49;;;;;;;31.17;22.77;;;0.60;99.90;;;;;;5083583;28;20526;-78
2024/01/17 07:24:20;;;;;;;27.77;21.93;;;0.60;99.90;;;;;;5083312;28;20472;-77
2024/01/17 07:26:50;;;;;;;30.07;23.67;;;0.60;99.90;;;;;;5083390;28;20504;-78
2024/01/17 07:29:20;;;;;;;34.10;22.03;;;0.60;99.90;;;;;;5080613;28;20460;-76
2024/01/17 07:31:48;;;;;;;28.03;24.00;;;0.60;99.90;;;;;;5078855;28;20479;-79
2024/01/17 07:34:19;;;;;;;26.20;23.10;;;0.70;99.90;;;;;;5083431;28;20475;-77
2024/01/17 07:36:46;;;;;;;28.07;23.33;;;0.40;99.90;;;;;;5085457;28;20535;-79
2024/01/17 07:39:18;;;;;;;28.97;24.60;;;0.70;99.90;;;;;;5083240;28;20463;-78
2024/01/17 07:41:47;;;;;;;31.37;23.70;;;0.90;99.90;;;;;;5081632;28;20480;-80
2024/01/17 07:44:18;;;;;;;30.30;23.03;;;0.70;99.90;;;;;;5079974;28;20478;-79
2024/01/17 07:46:50;;;;;;;26.20;23.30;;;0.70;99.90;;;;;;5080708;28;20443;-78
2024/01/17 07:49:28;;;;;;;30.07;24.20;;;0.70;99.90;;;;;;5079876;28;20453;-79
2024/01/17 07:51:56;;;;;;;34.17;25.50;;;0.70;99.90;;;;;;5082604;28;20462;-79
2024/01/17 07:54:26;;;;;;;33.67;26.20;;;0.80;99.90;;;;;;5080903;28;20440;-78
2024/01/17 07:56:54;;;;;;;38.17;25.40;;;0.90;99.90;;;;;;5086661;28;20456;-78
2024/01/17 07:59:25;;;;;;;30.73;25.40;;;0.80;99.90;;;;;;5088155;28;20448;-76
2024/01/17 08:01:57;;;;;;;35.30;25.30;;;1.00;99.90;;;;;;5087940;28;20468;-79
2024/01/17 08:04:26;;;;;;;32.17;25.70;;;1.00;99.90;;;;;;5088306;28;20468;-79
2024/01/17 08:06:55;;;;;;;33.63;24.40;;;1.00;99.90;;;;;;5088433;28;20533;-78
2024/01/17 08:09:26;;;;;;;34.03;25.40;;;1.00;99.90;;;;;;5090037;28;20449;-78
2024/01/17 08:11:58;;;;;;;29.53;23.50;;;1.00;99.90;;;;;;5090102;28;20473;-80
2024/01/17 08:14:34;;;;;;;29.10;23.07;;;1.10;99.90;;;;;;5090062;28;20445;-78
2024/01/17 08:17:19;;;;;;;35.50;25.00;;;1.10;99.90;;;;;;5089373;28;20444;-78
2024/01/17 08:20:08;;;;;;;35.40;23.50;;;1.20;99.90;;;;;;5087971;28;20460;-77
2024/01/17 08:22:45;;;;;;;28.27;22.77;;;1.40;99.90;;;;;;5088949;28;20469;-79
2024/01/17 08:25:15;;;;;;;34.27;24.20;;;1.20;99.90;;;;;;5090446;28;20489;-78
2024/01/17 08:27:49;;;;;;;31.87;22.67;;;1.20;99.90;;;;;;5089770;28;20431;-80
2024/01/17 08:30:24;;;;;;;29.83;22.70;;;1.20;99.90;;;;;;5087436;28;20577;-77
2024/01/17 08:32:56;;;;;;;28.30;22.87;;;1.20;99.90;;;;;;5086059;28;20476;-78
2024/01/17 08:35:25;;;;;;;30.97;23.10;;;1.30;99.90;;;;;;5083653;28;20500;-81
2024/01/17 08:38:00;;;;;;;29.43;24.13;;;1.30;99.90;;;;;;5080003;28;20462;-78
2024/01/17 08:40:29;;;;;;;27.90;23.17;;;1.30;99.90;;;;;;5077982;28;20456;-80
2024/01/17 08:43:02;;;;;;;30.03;24.57;;;1.30;99.90;;;;;;5080182;28;20537;-79
2024/01/17 08:45:37;;;;;;;29.47;22.80;;;1.40;99.90;;;;;;5078516;28;20536;-80
2024/01/17 08:48:15;;;;;;;28.80;22.20;;;1.40;99.90;;;;;;5081480;28;20457;-79
2024/01/17 08:50:46;;;;;;;28.77;22.03;;;1.50;99.90;;;;;;5079590;28;20515;-79
2024/01/17 08:53:16;;;;;;;30.67;23.00;;;1.40;99.90;;;;;;5080080;28;20468;-80
2024/01/17 08:55:44;;;;;;;29.10;22.93;;;1.50;99.90;;;;;;5079574;28;20442;-79
2024/01/17 08:58:14;;;;;;;31.63;22.80;;;1.70;99.90;;;;;;5081081;28;20933;-80
2024/01/17 09:00:42;;;;;;;29.33;23.17;;;1.60;99.90;;;;;;5080289;28;20436;-80
2024/01/17 09:03:22;;;;;;;30.60;24.83;;;1.60;99.90;;;;;;5078599;28;20484;-78
2024/01/17 09:05:51;;;;;;;36.87;26.70;;;1.60;99.90;;;;;;5079356;28;20470;-78
2024/01/17 09:08:23;;;;;;;28.17;23.97;;;1.60;99.90;;;;;;5078588;28;20477;-78
2024/01/17 09:10:54;;;;;;;28.43;23.13;;;1.60;99.90;;;;;;5079823;28;20460;-79
2024/01/17 09:13:25;;;;;;;30.57;21.67;;;1.70;99.90;;;;;;5060165;28;20485;-82
2024/01/17 09:15:58;;;;;;;27.97;23.07;;;1.70;99.90;;;;;;5061960;28;20445;-79
2024/01/17 09:18:32;;;;;;;28.40;23.20;;;1.70;99.90;;;;;;5061781;28;20454;-79
2024/01/17 09:21:08;;;;;;;29.57;22.77;;;1.70;99.90;;;;;;5060682;28;20922;-78
2024/01/17 09:23:38;;;;;;;29.03;23.30;;;1.70;99.90;;;;;;5060595;28;20561;-78
2024/01/17 09:26:18;;;;;;;29.60;22.87;;;1.70;99.90;;;;;;5059232;28;20471;-75
2024/01/17 09:28:47;;;;;;;31.10;24.50;;;1.70;99.90;;;;;;5057846;28;20452;-77
2024/01/17 09:31:18;;;;;;;26.80;23.27;;;1.90;99.90;;;;;;5056717;28;20459;-79
2024/01/17 09:34:01;;;;;;;28.37;22.63;;;1.80;99.90;;;;;;5056931;28;20494;-78
2024/01/17 09:36:35;;;;;;;30.93;23.13;;;1.80;99.90;;;;;;5058183;28;20530;-79
2024/01/17 09:39:27;;;;;;;29.60;23.80;;;1.60;99.90;;;;;;5056921;28;20555;-77
2024/01/17 09:42:04;;;;;;;28.23;23.00;;;1.60;99.90;;;;;;5057952;28;20477;-79
2024/01/17 09:44:35;;;;;;;28.80;22.20;;;1.90;99.90;;;;;;5057516;28;20505;-79
2024/01/17 09:47:13;;;;;;;31.67;23.77;;;1.90;99.90;;;;;;5057577;28;20481;-78
2024/01/17 09:49:53;;;;;;;31.50;22.53;;;2.00;99.90;;;;;;5064686;28;20537;-78
2024/01/17 09:52:53;;;;;;;31.20;23.33;;;2.00;99.90;;;;;;5063228;28;20585;-79
2024/01/17 09:55:29;;;;;;;32.37;23.70;;;2.10;99.90;;;;;;5066577;28;20495;-79
2024/01/17 09:58:02;;;;;;;26.00;22.23;;;2.10;99.90;;;;;;5060394;28;20866;-82
2024/01/17 10:00:47;;;;;;;30.93;22.20;;;2.10;99.90;;;;;;5060327;28;20551;-78
2024/01/17 10:03:22;;;;;;;35.03;24.87;;;2.10;99.90;;;;;;5065123;28;20531;-77
2024/01/17 10:06:13;;;;;;;39.23;24.63;;;2.20;99.90;;;;;;5061670;28;20575;-79
2024/01/17 10:09:00;;;;;;;32.93;23.07;;;2.40;99.90;;;;;;5060676;28;20440;-79
2024/01/17 10:11:51;;;;;;;29.77;24.20;;;2.20;99.90;;;;;;5062837;28;20475;-78
2024/01/17 10:14:26;;;;;;;32.47;23.10;;;2.30;99.90;;;;;;5061366;28;20539;-79
2024/01/17 10:17:19;;;;;;;30.67;23.30;;;2.30;99.90;;;;;;5060586;28;20451;-81
2024/01/17 10:19:55;;;;;;;29.97;23.57;;;2.30;99.90;;;;;;5060212;28;20505;-80
2024/01/17 10:22:25;;;;;;;28.83;23.10;;;2.50;99.90;;;;;;5069154;28;20483;-81
2024/01/17 10:25:02;;;;;;;33.23;24.57;;;2.40;99.90;;;;;;5068762;28;20527;-80
2024/01/17 10:27:41;;;;;;;32.33;23.33;;;2.40;99.90;;;;;;5067692;28;20457;-80
2024/01/17 10:30:13;;;;;;;35.67;23.70;;;2.50;99.90;;;;;;5059776;28;20460;-80
2024/01/17 10:32:41;;;;;;;34.53;24.07;;;2.50;99.90;;;;;;5058998;28;20535;-80
2024/01/17 10:35:19;;;;;;;26.00;22.93;;;2.50;99.90;;;;;;5057217;28;20448;-82
2024/01/17 10:37:49;;;;;;;28.43;22.93;;;2.50;99.90;;;;;;5058166;28;20473;-80
2024/01/17 10:40:22;;;;;;;27.23;21.83;;;2.60;99.90;;;;;;5059317;28;20467;-78
2024/01/17 10:43:14;;;;;;;27.63;20.33;;;2.50;99.90;;;;;;5060352;28;20475;-81
2024/01/17 10:45:44;;;;;;;53.60;23.33;;;2.80;99.90;;;;;;5062764;28;20492;-79
2024/01/17 10:48:16;;;;;;;57.03;25.53;;;2.70;99.90;;;;;;5064396;28;20475;-79
2024/01/17 10:50:48;;;;;;;52.80;25.07;;;2.70;99.90;;;;;;5065177;28;20452;-79
2024/01/17 10:53:23;;;;;;;52.17;25.37;;;2.80;99.90;;;;;;5064735;28;20571;-79
2024/01/17 10:56:04;;;;;;;35.80;20.60;;;2.80;99.90;;;;;;5063449;28;20453;-79
2024/01/17 10:58:44;;;;;;;34.83;20.67;;;2.90;99.90;;;;;;5058723;28;20453;-79
2024/01/17 11:01:21;;;;;;;26.37;20.33;;;2.70;99.90;;;;;;5061175;28;20446;-80
2024/01/17 11:03:55;;;;;;;25.43;20.07;;;3.00;99.90;;;;;;5060246;28;20473;-80
2024/01/17 11:06:44;;;;;;;21.77;18.87;;;3.00;99.90;;;;;;5056527;28;21006;-78
2024/01/17 11:12:08;;;;;;;20.63;17.60;;;3.10;99.90;;;;;;5054519;28;20501;-78
2024/01/17 11:14:50;;;;;;;27.87;18.73;;;3.00;99.90;;;;;;5054787;28;20447;-78
2024/01/17 11:17:35;;;;;;;24.23;18.97;;;3.10;99.90;;;;;;5054774;28;20460;-80
2024/01/17 11:20:08;;;;;;;22.40;17.60;;;2.80;99.90;;;;;;5053975;28;20805;-79
2024/01/17 11:22:41;;;;;;;20.93;17.20;;;3.00;99.90;;;;;;5053076;28;20469;-79
2024/01/17 11:25:24;;;;;;;19.87;16.70;;;3.20;99.90;;;;;;5056653;28;20563;-82
2024/01/17 11:28:05;;;;;;;20.30;16.97;;;3.20;99.90;;;;;;5054029;28;20451;-79
2024/01/17 11:30:55;;;;;;;18.83;16.40;;;3.00;99.90;;;;;;5053218;28;20453;-80
2024/01/17 11:33:25;;;;;;;24.60;17.40;;;3.30;99.90;;;;;;5055845;28;20491;-80
2024/01/17 11:36:04;;;;;;;25.13;18.40;;;3.30;99.90;;;;;;5056722;28;20455;-79
2024/01/17 11:38:35;;;;;;;21.23;18.30;;;3.40;99.90;;;;;;5059407;28;20559;-80
2024/01/17 11:41:28;;;;;;;22.83;17.73;;;3.40;99.90;;;;;;5057418;28;20529;-78
2024/01/17 11:43:58;;;;;;;23.30;16.73;;;3.40;99.90;;;;;;5054956;28;20459;-79
2024/01/17 11:46:31;;;;;;;25.10;18.60;;;3.20;99.90;;;;;;5055455;28;20470;-77
2024/01/17 11:49:10;;;;;;;21.87;17.53;;;3.50;99.90;;;;;;5055885;28;20457;-79
2024/01/17 11:51:48;;;;;;;22.80;17.33;;;3.50;99.90;;;;;;5057770;28;20454;-78
2024/01/17 11:54:26;;;;;;;22.60;17.00;;;3.50;99.90;;;;;;5058631;28;20464;-79
2024/01/17 11:57:02;;;;;;;18.30;16.07;;;3.50;99.90;;;;;;5056632;28;20442;-78
2024/01/17 11:59:34;;;;;;;21.37;15.63;;;3.80;99.90;;;;;;5058051;28;20468;-81
2024/01/17 12:02:11;;;;;;;16.80;15.10;;;3.60;99.90;;;;;;5057067;28;20652;-80
2024/01/17 12:04:44;;;;;;;16.90;14.30;;;3.60;99.90;;;;;;5066902;28;20448;-80
2024/01/17 12:07:22;;;;;;;31.87;24.50;;;3.70;99.90;;;;;;5070591;28;20472;-79
2024/01/17 12:10:05;;;;;;;19.93;17.30;;;3.80;99.90;;;;;;5071953;28;20488;-80
2024/01/17 12:12:37;;;;;;;18.90;15.67;;;3.80;99.90;;;;;;5075605;28;20478;-79
2024/01/17 12:15:14;;;;;;;16.67;15.07;;;3.80;99.90;;;;;;5072733;28;20452;-81
2024/01/17 12:17:48;;;;;;;18.50;14.87;;;3.90;99.90;;;;;;5074465;28;20441;-77
2024/01/17 12:20:23;;;;;;;20.30;13.90;;;3.90;99.90;;;;;;5076106;28;20450;-80
2024/01/17 12:23:00;;;;;;;14.70;13.13;;;3.90;99.90;;;;;;5075135;28;20461;-80
2024/01/17 12:25:41;;;;;;;16.93;14.20;;;4.00;99.90;;;;;;5079429;28;20476;-78
2024/01/17 12:28:31;;;;;;;14.67;13.00;;;4.00;99.90;;;;;;5080653;28;20452;-79
2024/01/17 12:31:04;;;;;;;17.43;12.90;;;4.10;99.90;;;;;;5073304;28;20464;-79
2024/01/17 12:33:35;;;;;;;19.83;13.20;;;4.10;99.90;;;;;;5082712;28;20492;-78
2024/01/17 12:36:08;;;;;;;16.63;12.80;;;4.10;99.90;;;;;;5076974;28;20506;-80
2024/01/17 12:38:43;;;;;;;15.57;12.87;;;4.20;99.90;;;;;;5080464;28;20475;-78
2024/01/17 12:41:36;;;;;;;17.53;12.47;;;4.00;99.90;;;;;;5081245;28;20444;-80
2024/01/17 12:44:16;;;;;;;14.50;12.40;;;4.30;99.90;;;;;;5081268;28;20448;-79
2024/01/17 12:46:47;;;;;;;20.83;12.43;;;4.30;99.90;;;;;;5083546;28;20472;-81
2024/01/17 12:49:21;;;;;;;12.67;11.47;;;4.40;99.90;;;;;;5083221;28;20517;-80
2024/01/17 12:51:51;;;;;;;13.07;11.50;;;4.50;99.90;;;;;;5083019;28;20537;-79
2024/01/17 12:54:37;;;;;;;14.13;12.77;;;4.50;99.90;;;;;;5082377;28;20512;-77
2024/01/17 12:57:08;;;;;;;17.67;12.90;;;4.60;99.90;;;;;;5076741;28;20527;-78
2024/01/17 12:59:44;;;;;;;15.23;12.23;;;4.70;99.90;;;;;;5073113;28;20452;-80
2024/01/17 13:02:25;;;;;;;12.80;11.43;;;5.00;99.90;;;;;;5080650;28;20480;-79
2024/01/17 13:05:31;;;;;;;13.77;11.50;;;4.90;99.90;;;;;;5076297;28;20471;-77
2024/01/17 13:08:18;;;;;;;16.10;12.83;;;4.90;99.90;;;;;;4985887;28;20855;-79
2024/01/17 13:10:54;;;;;;;16.03;12.50;;;5.20;99.90;;;;;;5072971;28;20491;-77
2024/01/17 13:13:31;;;;;;;12.87;11.57;;;5.10;99.90;;;;;;5079807;28;20468;-77
2024/01/17 13:16:14;;;;;;;13.70;12.00;;;5.20;99.90;;;;;;5082654;28;20508;-77